sensor_id;sensor_type;location;lat;lon;timestamp;pressure;altitude;pressure_sealevel;temperature;humidity
42285;BME280;27942;47.510;18.966;2022-11-15T00:01:23;-15330.31;;;4.38;100.00
42285;BME280;27942;47.510;18.966;2022-11-15T00:03:52;-15329.69;;;4.36;100.00
42285;BME280;27942;47.510;18.966;2022-11-15T00:06:17;-15328.44;;;4.32;100.00
42285;BME280;27942;47.510;18.966;2022-11-15T00:08:42;-15328.44;;;4.32;100.00
42285;BME280;27942;47.510;18.966;2022-11-15T00:11:10;-15327.66;;;4.29;100.00
42285;BME280;27942;47.510;18.966;2022-11-15T00:13:36;-15328.28;;;4.31;100.00
42285;BME280;27942;47.510;18.966;2022-11-15T00:16:01;-15324.41;;;4.19;100.00
42285;BME280;27942;47.510;18.966;2022-11-15T00:18:28;-15326.72;;;4.26;100.00
42285;BME280;27942;47.510;18.966;2022-11-15T00:20:54;-15325.19;;;4.21;100.00
42285;BME280;27942;47.510;18.966;2022-11-15T00:23:19;-15326.56;;;4.26;100.00
42285;BME280;27942;47.510;18.966;2022-11-15T00:25:45;-15329.38;;;4.35;100.00
42285;BME280;27942;47.510;18.966;2022-11-15T00:28:11;-15327.97;;;4.30;100.00
42285;BME280;27942;47.510;18.966;2022-11-15T00:30:37;-15324.72;;;4.20;100.00
42285;BME280;27942;47.510;18.966;2022-11-15T00:33:06;-15325.19;;;4.21;100.00
42285;BME280;27942;47.510;18.966;2022-11-15T00:35:32;-15326.72;;;4.26;100.00
42285;BME280;27942;47.510;18.966;2022-11-15T00:37:59;-15325.03;;;4.21;100.00
42285;BME280;27942;47.510;18.966;2022-11-15T00:40:25;-15329.53;;;4.35;100.00
42285;BME280;27942;47.510;18.966;2022-11-15T00:42:50;-15330.47;;;4.39;100.00
42285;BME280;27942;47.510;18.966;2022-11-15T00:45:15;-15330.31;;;4.38;100.00
42285;BME280;27942;47.510;18.966;2022-11-15T00:47:44;-15335.09;;;4.54;100.00
42285;BME280;27942;47.510;18.966;2022-11-15T00:50:10;-15335.25;;;4.54;100.00
42285;BME280;27942;47.510;18.966;2022-11-15T00:52:35;-15339.00;;;4.67;100.00
42285;BME280;27942;47.510;18.966;2022-11-15T00:55:00;-15341.00;;;4.73;100.00
42285;BME280;27942;47.510;18.966;2022-11-15T00:57:26;-15341.94;;;4.76;100.00
42285;BME280;27942;47.510;18.966;2022-11-15T00:59:51;-15345.03;;;4.86;100.00
42285;BME280;27942;47.510;18.966;2022-11-15T01:02:16;-15343.47;;;4.81;100.00
42285;BME280;27942;47.510;18.966;2022-11-15T01:04:42;-15344.72;;;4.85;100.00
42285;BME280;27942;47.510;18.966;2022-11-15T01:07:07;-15346.91;;;4.93;100.00
42285;BME280;27942;47.510;18.966;2022-11-15T01:09:32;-15347.66;;;4.95;100.00
42285;BME280;27942;47.510;18.966;2022-11-15T01:11:58;-15349.22;;;5.00;100.00
42285;BME280;27942;47.510;18.966;2022-11-15T01:14:23;-15349.22;;;5.00;100.00
42285;BME280;27942;47.510;18.966;2022-11-15T01:16:48;-15347.06;;;4.93;100.00
42285;BME280;27942;47.510;18.966;2022-11-15T01:19:13;-15346.91;;;4.93;100.00
42285;BME280;27942;47.510;18.966;2022-11-15T01:21:39;-15349.84;;;5.02;100.00
42285;BME280;27942;47.510;18.966;2022-11-15T01:24:04;-15348.59;;;4.98;100.00
42285;BME280;27942;47.510;18.966;2022-11-15T01:26:29;-15349.38;;;5.01;100.00
42285;BME280;27942;47.510;18.966;2022-11-15T01:28:55;-15352.94;;;5.12;100.00
42285;BME280;27942;47.510;18.966;2022-11-15T01:31:21;-15352.00;;;5.09;100.00
42285;BME280;27942;47.510;18.966;2022-11-15T01:33:47;-15355.13;;;5.20;100.00
42285;BME280;27942;47.510;18.966;2022-11-15T01:36:17;-15353.25;;;5.13;100.00
42285;BME280;27942;47.510;18.966;2022-11-15T01:38:43;-15354.34;;;5.17;100.00
42285;BME280;27942;47.510;18.966;2022-11-15T01:41:29;-15356.66;;;5.25;100.00
42285;BME280;27942;47.510;18.966;2022-11-15T01:46:46;-15356.97;;;5.26;100.00
42285;BME280;27942;47.510;18.966;2022-11-15T01:49:18;-15356.34;;;5.24;100.00
42285;BME280;27942;47.510;18.966;2022-11-15T01:51:44;-15354.66;;;5.18;100.00
42285;BME280;27942;47.510;18.966;2022-11-15T01:54:14;-15355.13;;;5.20;100.00
42285;BME280;27942;47.510;18.966;2022-11-15T01:57:03;-15357.59;;;5.28;100.00
42285;BME280;27942;47.510;18.966;2022-11-15T01:59:31;-15356.19;;;5.23;100.00
42285;BME280;27942;47.510;18.966;2022-11-15T02:01:56;-15357.59;;;5.28;100.00
42285;BME280;27942;47.510;18.966;2022-11-15T02:04:28;-15358.22;;;5.30;100.00
42285;BME280;27942;47.510;18.966;2022-11-15T02:06:53;-15356.66;;;5.25;100.00
42285;BME280;27942;47.510;18.966;2022-11-15T02:09:19;-15356.50;;;5.24;100.00
42285;BME280;27942;47.510;18.966;2022-11-15T02:11:44;-15356.34;;;5.24;100.00
42285;BME280;27942;47.510;18.966;2022-11-15T02:14:13;-15358.53;;;5.31;100.00
42285;BME280;27942;47.510;18.966;2022-11-15T02:25:39;-15359.91;;;5.35;100.00
42285;BME280;27942;47.510;18.966;2022-11-15T02:31:03;-15356.34;;;5.24;100.00
42285;BME280;27942;47.510;18.966;2022-11-15T02:33:48;-15359.31;;;5.33;100.00
42285;BME280;27942;47.510;18.966;2022-11-15T02:39:10;-15359.91;;;5.35;100.00
42285;BME280;27942;47.510;18.966;2022-11-15T02:44:17;-15359.16;;;5.33;100.00
42285;BME280;27942;47.510;18.966;2022-11-15T02:46:49;-15356.97;;;5.26;100.00
42285;BME280;27942;47.510;18.966;2022-11-15T02:49:35;-15356.97;;;5.26;100.00
42285;BME280;27942;47.510;18.966;2022-11-15T02:52:02;-15358.84;;;5.32;100.00
42285;BME280;27942;47.510;18.966;2022-11-15T02:54:32;-15357.59;;;5.28;100.00
42285;BME280;27942;47.510;18.966;2022-11-15T02:57:05;-15356.34;;;5.24;100.00
42285;BME280;27942;47.510;18.966;2022-11-15T03:02:33;-15358.69;;;5.31;100.00
42285;BME280;27942;47.510;18.966;2022-11-15T03:08:22;-15357.59;;;5.28;100.00
42285;BME280;27942;47.510;18.966;2022-11-15T03:16:20;-15356.50;;;5.24;100.00
42285;BME280;27942;47.510;18.966;2022-11-15T03:18:52;-15357.28;;;5.27;100.00
42285;BME280;27942;47.510;18.966;2022-11-15T03:21:19;-15356.66;;;5.25;100.00
42285;BME280;27942;47.510;18.966;2022-11-15T03:23:48;-15355.13;;;5.20;100.00
42285;BME280;27942;47.510;18.966;2022-11-15T03:26:16;-15357.59;;;5.28;100.00
42285;BME280;27942;47.510;18.966;2022-11-15T03:31:13;-15354.03;;;5.16;100.00
42285;BME280;27942;47.510;18.966;2022-11-15T03:33:58;-15353.88;;;5.16;100.00
42285;BME280;27942;47.510;18.966;2022-11-15T03:36:26;-15356.66;;;5.25;100.00
42285;BME280;27942;47.510;18.966;2022-11-15T03:38:54;-15356.34;;;5.24;100.00
42285;BME280;27942;47.510;18.966;2022-11-15T03:41:30;-15355.28;;;5.20;100.00
42285;BME280;27942;47.510;18.966;2022-11-15T03:44:10;-15355.44;;;5.21;100.00
42285;BME280;27942;47.510;18.966;2022-11-15T03:46:41;-15355.44;;;5.21;100.00
42285;BME280;27942;47.510;18.966;2022-11-15T03:49:20;-15355.13;;;5.20;100.00
42285;BME280;27942;47.510;18.966;2022-11-15T03:54:34;-15355.91;;;5.22;100.00
42285;BME280;27942;47.510;18.966;2022-11-15T03:56:59;-15358.06;;;5.29;100.00
42285;BME280;27942;47.510;18.966;2022-11-15T03:59:25;-15357.28;;;5.27;100.00
42285;BME280;27942;47.510;18.966;2022-11-15T04:01:50;-15354.81;;;5.19;100.00
42285;BME280;27942;47.510;18.966;2022-11-15T04:04:15;-15353.25;;;5.13;100.00
42285;BME280;27942;47.510;18.966;2022-11-15T04:06:40;-15354.97;;;5.19;100.00
42285;BME280;27942;47.510;18.966;2022-11-15T04:09:06;-15354.19;;;5.17;100.00
42285;BME280;27942;47.510;18.966;2022-11-15T04:11:31;-15352.47;;;5.11;100.00
42285;BME280;27942;47.510;18.966;2022-11-15T04:13:56;-15353.56;;;5.15;100.00
42285;BME280;27942;47.510;18.966;2022-11-15T04:16:22;-15353.25;;;5.13;100.00
42285;BME280;27942;47.510;18.966;2022-11-15T04:18:47;-15350.63;;;5.05;100.00
42285;BME280;27942;47.510;18.966;2022-11-15T04:21:35;-15350.47;;;5.04;100.00
42285;BME280;27942;47.510;18.966;2022-11-15T04:24:19;-15348.28;;;4.97;100.00
42285;BME280;27942;47.510;18.966;2022-11-15T04:26:44;-15350.00;;;5.03;100.00
42285;BME280;27942;47.510;18.966;2022-11-15T04:29:09;-15351.38;;;5.07;100.00
42285;BME280;27942;47.510;18.966;2022-11-15T04:31:59;-15350.31;;;5.04;100.00
42285;BME280;27942;47.510;18.966;2022-11-15T04:34:24;-15351.88;;;5.09;100.00
42285;BME280;27942;47.510;18.966;2022-11-15T04:36:49;-15352.31;;;5.10;100.00
42285;BME280;27942;47.510;18.966;2022-11-15T04:39:33;-15352.47;;;5.11;100.00
42285;BME280;27942;47.510;18.966;2022-11-15T04:41:58;-15352.31;;;5.10;100.00
42285;BME280;27942;47.510;18.966;2022-11-15T04:44:24;-15351.38;;;5.07;100.00
42285;BME280;27942;47.510;18.966;2022-11-15T04:46:49;-15350.94;;;5.06;100.00
42285;BME280;27942;47.510;18.966;2022-11-15T04:49:14;-15349.22;;;5.00;100.00
42285;BME280;27942;47.510;18.966;2022-11-15T04:51:40;-15349.38;;;5.01;100.00
42285;BME280;27942;47.510;18.966;2022-11-15T04:54:05;-15348.59;;;4.98;100.00
42285;BME280;27942;47.510;18.966;2022-11-15T04:56:30;-15346.75;;;4.92;100.00
42285;BME280;27942;47.510;18.966;2022-11-15T04:58:56;-15347.06;;;4.93;100.00
42285;BME280;27942;47.510;18.966;2022-11-15T05:01:21;-15345.34;;;4.87;100.00
42285;BME280;27942;47.510;18.966;2022-11-15T05:03:46;-15346.44;;;4.91;100.00
42285;BME280;27942;47.510;18.966;2022-11-15T05:06:30;-15344.88;;;4.86;100.00
42285;BME280;27942;47.510;18.966;2022-11-15T05:08:56;-15347.38;;;4.94;100.00
42285;BME280;27942;47.510;18.966;2022-11-15T05:11:21;-15349.06;;;5.00;100.00
42285;BME280;27942;47.510;18.966;2022-11-15T05:13:47;-15350.63;;;5.05;100.00
42285;BME280;27942;47.510;18.966;2022-11-15T05:16:12;-15353.88;;;5.16;100.00
42285;BME280;27942;47.510;18.966;2022-11-15T05:18:38;-15354.50;;;5.18;100.00
42285;BME280;27942;47.510;18.966;2022-11-15T05:21:07;-15355.28;;;5.20;100.00
42285;BME280;27942;47.510;18.966;2022-11-15T05:23:33;-15354.81;;;5.19;100.00
42285;BME280;27942;47.510;18.966;2022-11-15T05:25:59;-15354.81;;;5.19;100.00
42285;BME280;27942;47.510;18.966;2022-11-15T05:28:25;-15355.91;;;5.22;100.00
42285;BME280;27942;47.510;18.966;2022-11-15T05:30:50;-15359.00;;;5.32;100.00
42285;BME280;27942;47.510;18.966;2022-11-15T05:33:15;-15356.34;;;5.24;100.00
42285;BME280;27942;47.510;18.966;2022-11-15T05:35:44;-15358.06;;;5.29;100.00
42285;BME280;27942;47.510;18.966;2022-11-15T05:38:11;-15355.13;;;5.20;100.00
42285;BME280;27942;47.510;18.966;2022-11-15T05:40:37;-15354.81;;;5.19;100.00
42285;BME280;27942;47.510;18.966;2022-11-15T05:43:03;-15357.59;;;5.28;100.00
42285;BME280;27942;47.510;18.966;2022-11-15T05:45:29;-15355.72;;;5.22;100.00
42285;BME280;27942;47.510;18.966;2022-11-15T05:47:58;-15358.06;;;5.29;100.00
42285;BME280;27942;47.510;18.966;2022-11-15T05:50:25;-15356.06;;;5.23;100.00
42285;BME280;27942;47.510;18.966;2022-11-15T05:52:51;-15356.97;;;5.26;100.00
42285;BME280;27942;47.510;18.966;2022-11-15T05:55:16;-15359.63;;;5.34;100.00
42285;BME280;27942;47.510;18.966;2022-11-15T05:57:42;-15361.63;;;5.41;100.00
42285;BME280;27942;47.510;18.966;2022-11-15T06:00:08;-15359.31;;;5.33;100.00
42285;BME280;27942;47.510;18.966;2022-11-15T06:02:34;-15362.09;;;5.43;100.00
42285;BME280;27942;47.510;18.966;2022-11-15T06:04:59;-15361.00;;;5.39;100.00
42285;BME280;27942;47.510;18.966;2022-11-15T06:07:25;-15362.09;;;5.43;100.00
42285;BME280;27942;47.510;18.966;2022-11-15T06:09:50;-15362.88;;;5.45;100.00
42285;BME280;27942;47.510;18.966;2022-11-15T06:12:15;-15363.81;;;5.48;100.00
42285;BME280;27942;47.510;18.966;2022-11-15T06:14:41;-15367.38;;;5.60;100.00
42285;BME280;27942;47.510;18.966;2022-11-15T06:17:06;-15363.66;;;5.48;100.00
42285;BME280;27942;47.510;18.966;2022-11-15T06:19:31;-15365.81;;;5.55;100.00
42285;BME280;27942;47.510;18.966;2022-11-15T06:21:58;-15364.88;;;5.52;100.00
42285;BME280;27942;47.510;18.966;2022-11-15T06:24:24;-15364.41;;;5.50;100.00
42285;BME280;27942;47.510;18.966;2022-11-15T06:26:49;-15366.59;;;5.57;100.00
42285;BME280;27942;47.510;18.966;2022-11-15T06:29:14;-15366.91;;;5.58;100.00
42285;BME280;27942;47.510;18.966;2022-11-15T06:31:40;-15364.72;;;5.51;100.00
42285;BME280;27942;47.510;18.966;2022-11-15T06:34:05;-15365.81;;;5.55;100.00
42285;BME280;27942;47.510;18.966;2022-11-15T06:36:30;-15366.91;;;5.58;100.00
42285;BME280;27942;47.510;18.966;2022-11-15T06:38:56;-15366.13;;;5.56;100.00
42285;BME280;27942;47.510;18.966;2022-11-15T06:41:21;-15368.31;;;5.63;100.00
42285;BME280;27942;47.510;18.966;2022-11-15T06:43:46;-15367.22;;;5.59;100.00
42285;BME280;27942;47.510;18.966;2022-11-15T06:46:12;-15367.38;;;5.60;100.00
42285;BME280;27942;47.510;18.966;2022-11-15T06:48:37;-15368.16;;;5.62;100.00
42285;BME280;27942;47.510;18.966;2022-11-15T06:51:04;-15367.69;;;5.61;100.00
42285;BME280;27942;47.510;18.966;2022-11-15T06:53:30;-15370.31;;;5.70;100.00
42285;BME280;27942;47.510;18.966;2022-11-15T06:56:03;-15368.59;;;5.64;100.00
42285;BME280;27942;47.510;18.966;2022-11-15T06:58:29;-15371.41;;;5.73;100.00
42285;BME280;27942;47.510;18.966;2022-11-15T07:00:59;-15370.63;;;5.71;100.00
42285;BME280;27942;47.510;18.966;2022-11-15T07:03:25;-15371.88;;;5.75;100.00
42285;BME280;27942;47.510;18.966;2022-11-15T07:05:54;-15372.66;;;5.77;100.00
42285;BME280;27942;47.510;18.966;2022-11-15T07:08:20;-15373.41;;;5.80;100.00
42285;BME280;27942;47.510;18.966;2022-11-15T07:10:46;-15374.19;;;5.82;100.00
42285;BME280;27942;47.510;18.966;2022-11-15T07:13:11;-15375.28;;;5.86;100.00
42285;BME280;27942;47.510;18.966;2022-11-15T07:15:36;-15378.22;;;5.96;100.00
42285;BME280;27942;47.510;18.966;2022-11-15T07:18:02;-15377.78;;;5.94;100.00
42285;BME280;27942;47.510;18.966;2022-11-15T07:20:27;-15376.22;;;5.89;100.00
42285;BME280;27942;47.510;18.966;2022-11-15T07:23:03;-15377.16;;;5.92;100.00
42285;BME280;27942;47.510;18.966;2022-11-15T07:25:28;-15376.84;;;5.91;100.00
42285;BME280;27942;47.510;18.966;2022-11-15T07:27:55;-15377.16;;;5.92;100.00
42285;BME280;27942;47.510;18.966;2022-11-15T07:30:21;-15379.78;;;6.01;100.00
42285;BME280;27942;47.510;18.966;2022-11-15T07:32:47;-15381.50;;;6.06;100.00
42285;BME280;27942;47.510;18.966;2022-11-15T07:35:12;-15381.81;;;6.07;100.00
42285;BME280;27942;47.510;18.966;2022-11-15T07:37:37;-15381.50;;;6.06;100.00
42285;BME280;27942;47.510;18.966;2022-11-15T07:40:03;-15378.06;;;5.95;100.00
42285;BME280;27942;47.510;18.966;2022-11-15T07:42:31;-15379.31;;;5.99;100.00
42285;BME280;27942;47.510;18.966;2022-11-15T07:45:14;-15380.09;;;6.02;100.00
42285;BME280;27942;47.510;18.966;2022-11-15T07:47:40;-15377.31;;;5.93;100.00
42285;BME280;27942;47.510;18.966;2022-11-15T07:50:05;-15377.47;;;5.93;100.00
42285;BME280;27942;47.510;18.966;2022-11-15T07:52:30;-15379.00;;;5.98;100.00
42285;BME280;27942;47.510;18.966;2022-11-15T07:54:56;-15377.16;;;5.92;100.00
42285;BME280;27942;47.510;18.966;2022-11-15T07:57:21;-15379.47;;;6.00;100.00
42285;BME280;27942;47.510;18.966;2022-11-15T07:59:46;-15381.19;;;6.05;100.00
42285;BME280;27942;47.510;18.966;2022-11-15T08:02:12;-15381.19;;;6.05;100.00
42285;BME280;27942;47.510;18.966;2022-11-15T08:04:37;-15381.66;;;6.07;100.00
42285;BME280;27942;47.510;18.966;2022-11-15T08:07:02;-15380.56;;;6.03;100.00
42285;BME280;27942;47.510;18.966;2022-11-15T08:09:27;-15381.19;;;6.05;100.00
42285;BME280;27942;47.510;18.966;2022-11-15T08:11:53;-15381.03;;;6.05;100.00
42285;BME280;27942;47.510;18.966;2022-11-15T08:14:18;-15380.56;;;6.03;100.00
42285;BME280;27942;47.510;18.966;2022-11-15T08:16:43;-15382.13;;;6.08;100.00
42285;BME280;27942;47.510;18.966;2022-11-15T08:19:08;-15383.03;;;6.11;100.00
42285;BME280;27942;47.510;18.966;2022-11-15T08:21:34;-15383.81;;;6.14;100.00
42285;BME280;27942;47.510;18.966;2022-11-15T08:24:00;-15385.06;;;6.18;100.00
42285;BME280;27942;47.510;18.966;2022-11-15T08:26:26;-15384.28;;;6.15;100.00
42285;BME280;27942;47.510;18.966;2022-11-15T08:28:54;-15385.69;;;6.20;100.00
42285;BME280;27942;47.510;18.966;2022-11-15T08:31:19;-15385.38;;;6.19;100.00
42285;BME280;27942;47.510;18.966;2022-11-15T08:33:44;-15386.47;;;6.23;100.00
42285;BME280;27942;47.510;18.966;2022-11-15T08:36:14;-15385.06;;;6.18;100.00
42285;BME280;27942;47.510;18.966;2022-11-15T08:38:40;-15381.50;;;6.06;100.00
42285;BME280;27942;47.510;18.966;2022-11-15T08:41:05;-15380.88;;;6.04;100.00
42285;BME280;27942;47.510;18.966;2022-11-15T08:43:31;-15380.09;;;6.02;100.00
42285;BME280;27942;47.510;18.966;2022-11-15T08:45:57;-15381.03;;;6.05;100.00
42285;BME280;27942;47.510;18.966;2022-11-15T08:48:22;-15383.66;;;6.13;100.00
42285;BME280;27942;47.510;18.966;2022-11-15T08:50:48;-15381.03;;;6.05;100.00
42285;BME280;27942;47.510;18.966;2022-11-15T08:53:13;-15380.25;;;6.02;100.00
42285;BME280;27942;47.510;18.966;2022-11-15T08:55:39;-15379.78;;;6.01;100.00
42285;BME280;27942;47.510;18.966;2022-11-15T08:58:05;-15377.63;;;5.94;100.00
42285;BME280;27942;47.510;18.966;2022-11-15T09:00:30;-15378.69;;;5.97;100.00
42285;BME280;27942;47.510;18.966;2022-11-15T09:02:56;-15377.16;;;5.92;100.00
42285;BME280;27942;47.510;18.966;2022-11-15T09:05:21;-15376.69;;;5.90;100.00
42285;BME280;27942;47.510;18.966;2022-11-15T09:07:46;-15374.97;;;5.85;100.00
42285;BME280;27942;47.510;18.966;2022-11-15T09:10:11;-15371.25;;;5.73;100.00
42285;BME280;27942;47.510;18.966;2022-11-15T09:12:37;-15371.88;;;5.75;100.00
42285;BME280;27942;47.510;18.966;2022-11-15T09:15:03;-15372.34;;;5.76;100.00
42285;BME280;27942;47.510;18.966;2022-11-15T09:17:28;-15369.22;;;5.66;100.00
42285;BME280;27942;47.510;18.966;2022-11-15T09:19:54;-15370.31;;;5.70;100.00
42285;BME280;27942;47.510;18.966;2022-11-15T09:22:19;-15370.78;;;5.71;100.00
42285;BME280;27942;47.510;18.966;2022-11-15T09:24:44;-15377.16;;;5.92;100.00
42285;BME280;27942;47.510;18.966;2022-11-15T09:27:10;-15378.06;;;5.95;100.00
42285;BME280;27942;47.510;18.966;2022-11-15T09:29:35;-15375.75;;;5.87;100.00
42285;BME280;27942;47.510;18.966;2022-11-15T09:32:01;-15378.38;;;5.96;100.00
42285;BME280;27942;47.510;18.966;2022-11-15T09:34:27;-15379.31;;;5.99;100.00
42285;BME280;27942;47.510;18.966;2022-11-15T09:36:52;-15379.31;;;5.99;100.00
42285;BME280;27942;47.510;18.966;2022-11-15T09:39:17;-15377.16;;;5.92;100.00
42285;BME280;27942;47.510;18.966;2022-11-15T09:42:01;-15381.19;;;6.05;100.00
42285;BME280;27942;47.510;18.966;2022-11-15T09:44:40;-15379.94;;;6.01;100.00
42285;BME280;27942;47.510;18.966;2022-11-15T09:49:57;-15378.38;;;5.96;100.00
42285;BME280;27942;47.510;18.966;2022-11-15T09:52:23;-15374.81;;;5.84;100.00
42285;BME280;27942;47.510;18.966;2022-11-15T09:54:51;-15374.34;;;5.83;100.00
42285;BME280;27942;47.510;18.966;2022-11-15T09:57:27;-15375.91;;;5.88;100.00
42285;BME280;27942;47.510;18.966;2022-11-15T10:05:39;-15378.22;;;5.96;100.00
42285;BME280;27942;47.510;18.966;2022-11-15T10:11:10;-15378.84;;;5.98;100.00
42285;BME280;27942;47.510;18.966;2022-11-15T10:13:41;-15373.13;;;5.79;100.00
42285;BME280;27942;47.510;18.966;2022-11-15T10:18:55;-15375.59;;;5.87;100.00
42285;BME280;27942;47.510;18.966;2022-11-15T10:21:44;-15376.53;;;5.90;100.00
42285;BME280;27942;47.510;18.966;2022-11-15T10:24:12;-15376.38;;;5.89;100.00
42285;BME280;27942;47.510;18.966;2022-11-15T10:26:38;-15376.84;;;5.91;100.00
42285;BME280;27942;47.510;18.966;2022-11-15T10:29:04;-15378.38;;;5.96;100.00
42285;BME280;27942;47.510;18.966;2022-11-15T10:31:29;-15378.38;;;5.96;100.00
42285;BME280;27942;47.510;18.966;2022-11-15T10:34:16;-15376.06;;;5.88;100.00
42285;BME280;27942;47.510;18.966;2022-11-15T10:36:45;-15374.50;;;5.83;100.00
42285;BME280;27942;47.510;18.966;2022-11-15T10:39:12;-15371.88;;;5.75;100.00
42285;BME280;27942;47.510;18.966;2022-11-15T10:41:41;-15371.72;;;5.74;100.00
42285;BME280;27942;47.510;18.966;2022-11-15T10:46:36;-15371.25;;;5.73;100.00
42285;BME280;27942;47.510;18.966;2022-11-15T10:49:25;-15369.53;;;5.67;100.00
42285;BME280;27942;47.510;18.966;2022-11-15T10:51:58;-15370.63;;;5.71;100.00
42285;BME280;27942;47.510;18.966;2022-11-15T10:54:37;-15371.41;;;5.73;100.00
42285;BME280;27942;47.510;18.966;2022-11-15T10:57:14;-15371.41;;;5.73;100.00
42285;BME280;27942;47.510;18.966;2022-11-15T10:59:45;-15371.25;;;5.73;100.00
42285;BME280;27942;47.510;18.966;2022-11-15T11:02:28;-15373.25;;;5.79;100.00
42285;BME280;27942;47.510;18.966;2022-11-15T11:04:54;-15373.41;;;5.80;100.00
42285;BME280;27942;47.510;18.966;2022-11-15T11:07:22;-15373.88;;;5.81;100.00
42285;BME280;27942;47.510;18.966;2022-11-15T11:12:39;-15378.06;;;5.95;100.00
42285;BME280;27942;47.510;18.966;2022-11-15T11:15:11;-15376.06;;;5.88;100.00
42285;BME280;27942;47.510;18.966;2022-11-15T11:17:55;-15377.00;;;5.92;100.00
42285;BME280;27942;47.510;18.966;2022-11-15T11:20:49;-15376.53;;;5.90;100.00
42285;BME280;27942;47.510;18.966;2022-11-15T11:28:50;-15374.81;;;5.84;100.00
42285;BME280;27942;47.510;18.966;2022-11-15T11:34:45;-15377.31;;;5.93;100.00
42285;BME280;27942;47.510;18.966;2022-11-15T11:37:26;-15372.34;;;5.76;100.00
42285;BME280;27942;47.510;18.966;2022-11-15T11:48:12;-15370.00;;;5.69;100.00
42285;BME280;27942;47.510;18.966;2022-11-15T11:50:38;-15367.84;;;5.61;100.00
42285;BME280;27942;47.510;18.966;2022-11-15T11:53:30;-15369.22;;;5.66;100.00
42285;BME280;27942;47.510;18.966;2022-11-15T11:55:58;-15369.38;;;5.67;100.00
42285;BME280;27942;47.510;18.966;2022-11-15T11:58:40;-15373.56;;;5.80;100.00
42285;BME280;27942;47.510;18.966;2022-11-15T12:01:10;-15373.72;;;5.81;100.00
42285;BME280;27942;47.510;18.966;2022-11-15T12:03:56;-15374.03;;;5.82;100.00
42285;BME280;27942;47.510;18.966;2022-11-15T12:06:33;-15372.34;;;5.76;100.00
42285;BME280;27942;47.510;18.966;2022-11-15T12:09:10;-15372.19;;;5.76;100.00
42285;BME280;27942;47.510;18.966;2022-11-15T12:11:57;-15373.13;;;5.79;100.00
42285;BME280;27942;47.510;18.966;2022-11-15T12:14:46;-15372.34;;;5.76;100.00
42285;BME280;27942;47.510;18.966;2022-11-15T12:17:13;-15372.19;;;5.76;100.00
42285;BME280;27942;47.510;18.966;2022-11-15T12:19:41;-15371.09;;;5.72;100.00
42285;BME280;27942;47.510;18.966;2022-11-15T12:22:19;-15374.03;;;5.82;100.00
42285;BME280;27942;47.510;18.966;2022-11-15T12:24:52;-15374.19;;;5.82;100.00
42285;BME280;27942;47.510;18.966;2022-11-15T12:27:36;-15374.50;;;5.83;100.00
42285;BME280;27942;47.510;18.966;2022-11-15T12:30:13;-15371.25;;;5.73;100.00
42285;BME280;27942;47.510;18.966;2022-11-15T12:32:41;-15373.25;;;5.79;100.00
42285;BME280;27942;47.510;18.966;2022-11-15T12:37:53;-15375.59;;;5.87;100.00
42285;BME280;27942;47.510;18.966;2022-11-15T12:40:35;-15373.56;;;5.80;100.00
42285;BME280;27942;47.510;18.966;2022-11-15T12:45:38;-15374.19;;;5.82;100.00
42285;BME280;27942;47.510;18.966;2022-11-15T13:06:52;-15371.72;;;5.74;100.00
42285;BME280;27942;47.510;18.966;2022-11-15T13:12:03;-15373.41;;;5.80;100.00
42285;BME280;27942;47.510;18.966;2022-11-15T13:17:19;-15375.91;;;5.88;100.00
42285;BME280;27942;47.510;18.966;2022-11-15T13:25:27;-15373.56;;;5.80;100.00
42285;BME280;27942;47.510;18.966;2022-11-15T13:27:58;-15374.19;;;5.82;100.00
42285;BME280;27942;47.510;18.966;2022-11-15T13:30:27;-15376.53;;;5.90;100.00
42285;BME280;27942;47.510;18.966;2022-11-15T13:32:54;-15376.69;;;5.90;100.00
42285;BME280;27942;47.510;18.966;2022-11-15T13:35:24;-15371.25;;;5.73;100.00
42285;BME280;27942;47.510;18.966;2022-11-15T13:37:51;-15369.84;;;5.68;100.00
42285;BME280;27942;47.510;18.966;2022-11-15T13:40:29;-15371.88;;;5.75;100.00
42285;BME280;27942;47.510;18.966;2022-11-15T13:42:57;-15367.84;;;5.61;100.00
42285;BME280;27942;47.510;18.966;2022-11-15T13:45:24;-15369.53;;;5.67;100.00
42285;BME280;27942;47.510;18.966;2022-11-15T13:47:57;-15370.94;;;5.72;100.00
42285;BME280;27942;47.510;18.966;2022-11-15T13:50:33;-15372.66;;;5.77;100.00
42285;BME280;27942;47.510;18.966;2022-11-15T13:53:03;-15367.84;;;5.61;100.00
42285;BME280;27942;47.510;18.966;2022-11-15T13:55:31;-15367.06;;;5.59;100.00
42285;BME280;27942;47.510;18.966;2022-11-15T13:58:03;-15363.50;;;5.47;100.00
42285;BME280;27942;47.510;18.966;2022-11-15T14:00:40;-15369.69;;;5.68;100.00
42285;BME280;27942;47.510;18.966;2022-11-15T14:03:17;-15368.91;;;5.65;100.00
42285;BME280;27942;47.510;18.966;2022-11-15T14:06:06;-15367.84;;;5.61;100.00
42285;BME280;27942;47.510;18.966;2022-11-15T14:08:31;-15363.81;;;5.48;100.00
42285;BME280;27942;47.510;18.966;2022-11-15T14:11:07;-15365.03;;;5.52;100.00
42285;BME280;27942;47.510;18.966;2022-11-15T14:13:34;-15368.00;;;5.62;100.00
42285;BME280;27942;47.510;18.966;2022-11-15T14:16:20;-15364.59;;;5.51;100.00
42285;BME280;27942;47.510;18.966;2022-11-15T14:18:48;-15365.81;;;5.55;100.00
42285;BME280;27942;47.510;18.966;2022-11-15T14:21:14;-15363.81;;;5.48;100.00
42285;BME280;27942;47.510;18.966;2022-11-15T14:23:40;-15364.13;;;5.49;100.00
42285;BME280;27942;47.510;18.966;2022-11-15T14:26:05;-15365.34;;;5.53;100.00
42285;BME280;27942;47.510;18.966;2022-11-15T14:28:32;-15367.84;;;5.61;100.00
42285;BME280;27942;47.510;18.966;2022-11-15T14:31:02;-15366.91;;;5.58;100.00
42285;BME280;27942;47.510;18.966;2022-11-15T14:33:33;-15366.91;;;5.58;100.00
42285;BME280;27942;47.510;18.966;2022-11-15T14:36:19;-15366.28;;;5.56;100.00
42285;BME280;27942;47.510;18.966;2022-11-15T14:38:45;-15364.13;;;5.49;100.00